Time;durP1;ratioP1;P1;durP2;ratioP2;P2;SDS_P1;SDS_P2;PMS_P1;PMS_P2;Temp;Humidity;BMP_temperature;BMP_pressure;BME280_temperature;BME280_humidity;BME280_pressure;Samples;Min_cycle;Max_cycle;Signal;HPM_P1;HPM_P2
2023/04/24 00:00:09;;;;;;;9.82;2.05;;;8.30;99.90;;;;;;5028295;28;20040;-86
2023/04/24 00:02:37;;;;;;;4.88;1.90;;;8.40;99.90;;;;;;5030664;28;20408;-86
2023/04/24 00:05:04;;;;;;;7.20;2.10;;;8.50;99.90;;;;;;5016184;28;20017;-86
2023/04/24 00:07:30;;;;;;;3.47;1.90;;;8.50;99.90;;;;;;5029594;28;20148;-86
2023/04/24 00:09:55;;;;;;;7.18;2.58;;;8.40;99.90;;;;;;5033219;28;20076;-86
2023/04/24 00:12:21;;;;;;;6.60;2.10;;;8.40;99.90;;;;;;5029674;28;20025;-85
2023/04/24 00:14:47;;;;;;;4.97;1.77;;;8.30;99.90;;;;;;5027687;28;20072;-85
2023/04/24 00:17:13;;;;;;;7.18;2.13;;;8.30;99.90;;;;;;5032276;28;20504;-85
2023/04/24 00:19:39;;;;;;;2.85;2.03;;;8.20;99.90;;;;;;5022940;28;20034;-86
2023/04/24 00:22:05;;;;;;;2.78;1.98;;;8.20;99.90;;;;;;5032178;28;20128;-85
2023/04/24 00:24:31;;;;;;;4.72;2.10;;;8.20;99.90;;;;;;5029342;28;20084;-85
2023/04/24 00:26:56;;;;;;;4.13;2.38;;;8.20;99.90;;;;;;5030433;28;20087;-86
2023/04/24 00:29:22;;;;;;;5.85;2.08;;;8.20;99.90;;;;;;5032994;28;20370;-86
2023/04/24 00:31:48;;;;;;;9.18;2.65;;;8.20;99.90;;;;;;5032629;28;20072;-86
2023/04/24 00:34:14;;;;;;;6.75;2.47;;;8.20;99.90;;;;;;5026703;28;20025;-86
2023/04/24 00:36:40;;;;;;;4.55;2.20;;;8.20;99.90;;;;;;5029336;28;20073;-86
2023/04/24 00:39:08;;;;;;;7.72;2.65;;;8.10;99.90;;;;;;5048502;28;20037;-87
2023/04/24 00:41:34;;;;;;;6.18;2.30;;;8.10;99.90;;;;;;5031508;28;20080;-86
2023/04/24 00:44:00;;;;;;;6.78;2.50;;;8.10;99.90;;;;;;5023538;28;20025;-86
2023/04/24 00:46:26;;;;;;;6.30;2.22;;;8.10;99.90;;;;;;5049318;28;20021;-86
2023/04/24 00:48:52;;;;;;;5.50;2.47;;;8.10;99.90;;;;;;5016406;28;20075;-86
2023/04/24 00:51:17;;;;;;;7.50;2.55;;;8.10;99.90;;;;;;5032317;28;20036;-86
2023/04/24 00:53:43;;;;;;;5.97;2.40;;;8.10;99.90;;;;;;5049140;28;20022;-86
2023/04/24 00:56:09;;;;;;;11.05;3.45;;;8.20;99.90;;;;;;5031885;28;20043;-85
2023/04/24 00:58:35;;;;;;;10.57;2.80;;;8.20;99.90;;;;;;5048765;28;20502;-86
2023/04/24 01:01:02;;;;;;;5.85;2.70;;;8.20;99.90;;;;;;5030154;28;20112;-86
2023/04/24 01:03:31;;;;;;;9.80;2.80;;;8.20;99.90;;;;;;5024944;28;20037;-86
2023/04/24 01:05:57;;;;;;;8.35;2.72;;;8.20;99.90;;;;;;5031162;28;20030;-86
2023/04/24 01:08:24;;;;;;;7.30;2.40;;;8.20;99.90;;;;;;5032646;28;20392;-86
2023/04/24 01:10:53;;;;;;;6.57;2.28;;;8.20;99.90;;;;;;5015950;28;20040;-86
2023/04/24 01:13:20;;;;;;;7.70;2.17;;;8.20;99.90;;;;;;5027438;28;20098;-86
2023/04/24 01:15:47;;;;;;;3.75;1.90;;;8.30;99.90;;;;;;5030488;28;20029;-86
2023/04/24 01:18:13;;;;;;;5.97;2.03;;;8.30;99.90;;;;;;5028214;28;20080;-86
2023/04/24 01:20:40;;;;;;;3.90;2.20;;;8.30;99.90;;;;;;5029581;28;20022;-86
2023/04/24 01:23:07;;;;;;;7.68;2.35;;;8.30;99.90;;;;;;5031921;28;20496;-86
2023/04/24 01:25:33;;;;;;;6.00;2.28;;;8.30;99.90;;;;;;5028916;28;20161;-86
2023/04/24 01:27:59;;;;;;;7.82;2.45;;;8.30;99.90;;;;;;5032358;28;20029;-86
2023/04/24 01:30:26;;;;;;;3.88;2.20;;;8.30;99.90;;;;;;5032865;28;20014;-86
2023/04/24 01:32:53;;;;;;;11.52;2.80;;;8.40;99.90;;;;;;5031005;28;20109;-86
2023/04/24 01:35:18;;;;;;;4.30;2.55;;;8.40;99.90;;;;;;5032521;28;20173;-86
2023/04/24 01:37:44;;;;;;;4.88;2.40;;;8.40;99.90;;;;;;5032129;28;20065;-86
2023/04/24 01:40:10;;;;;;;12.02;2.55;;;8.40;99.90;;;;;;5034206;28;20107;-86
2023/04/24 01:42:36;;;;;;;4.63;2.20;;;8.30;99.90;;;;;;5029225;28;20026;-86
2023/04/24 01:45:04;;;;;;;7.80;2.53;;;8.30;99.90;;;;;;5034312;28;20496;-86
2023/04/24 01:47:30;;;;;;;7.38;2.30;;;8.30;99.90;;;;;;5030178;28;20121;-85
2023/04/24 01:49:56;;;;;;;9.18;1.95;;;8.40;99.90;;;;;;5034502;28;20022;-86
2023/04/24 01:52:22;;;;;;;7.30;2.33;;;8.30;99.90;;;;;;5031571;28;20079;-86
2023/04/24 01:54:48;;;;;;;4.03;2.03;;;8.40;99.90;;;;;;5034816;28;20025;-86
2023/04/24 01:57:15;;;;;;;5.50;2.22;;;8.40;99.90;;;;;;5051912;28;20049;-86
2023/04/24 01:59:41;;;;;;;5.63;2.20;;;8.50;99.90;;;;;;5035550;28;20056;-86
2023/04/24 02:02:08;;;;;;;6.85;2.60;;;8.50;99.90;;;;;;5035048;28;20041;-86
2023/04/24 02:04:34;;;;;;;5.18;2.60;;;8.50;99.90;;;;;;5051933;28;20025;-86
2023/04/24 02:07:00;;;;;;;7.25;2.47;;;8.50;99.90;;;;;;5017249;28;20370;-86
2023/04/24 02:09:26;;;;;;;4.78;1.73;;;8.50;99.90;;;;;;5031925;28;20029;-86
2023/04/24 02:11:51;;;;;;;7.30;2.10;;;8.50;99.90;;;;;;5032518;28;20063;-86
2023/04/24 02:14:17;;;;;;;6.03;2.17;;;8.50;99.90;;;;;;5031975;28;20022;-86
2023/04/24 02:16:43;;;;;;;5.53;2.00;;;8.50;99.90;;;;;;5027892;28;20026;-86
2023/04/24 02:19:09;;;;;;;7.03;2.50;;;8.50;99.90;;;;;;5033849;28;20064;-86
2023/04/24 02:21:39;;;;;;;3.88;1.98;;;8.50;99.90;;;;;;5029908;28;20393;-86
2023/04/24 02:24:08;;;;;;;10.10;2.22;;;8.50;99.90;;;;;;5035591;28;20029;-86
2023/04/24 02:26:33;;;;;;;3.90;2.38;;;8.50;99.90;;;;;;5035161;28;20024;-86
2023/04/24 02:28:59;;;;;;;8.40;2.10;;;8.50;99.90;;;;;;5018124;28;20037;-86
2023/04/24 02:31:25;;;;;;;3.78;1.80;;;8.50;99.90;;;;;;5031394;28;20034;-86
2023/04/24 02:33:51;;;;;;;3.80;2.42;;;8.50;99.90;;;;;;5034253;28;20072;-86
2023/04/24 02:36:16;;;;;;;4.95;2.17;;;8.50;99.90;;;;;;5031729;28;20030;-86
2023/04/24 02:38:42;;;;;;;3.60;1.80;;;8.60;99.90;;;;;;5034986;28;20026;-86
2023/04/24 02:41:08;;;;;;;6.55;2.03;;;8.60;99.90;;;;;;5032579;28;20034;-86
2023/04/24 02:43:33;;;;;;;3.72;2.13;;;8.60;99.90;;;;;;5030969;28;20105;-86
2023/04/24 02:45:59;;;;;;;4.82;2.05;;;8.60;99.90;;;;;;5016238;28;20057;-85
2023/04/24 02:48:25;;;;;;;8.13;2.58;;;8.50;99.90;;;;;;5031269;28;20030;-86
2023/04/24 02:50:51;;;;;;;6.03;2.20;;;8.60;99.90;;;;;;5031410;28;20030;-86
2023/04/24 02:53:17;;;;;;;3.72;2.13;;;8.60;99.90;;;;;;5031078;28;20030;-86
2023/04/24 02:55:42;;;;;;;8.57;1.85;;;8.50;99.90;;;;;;5030486;28;20036;-86
2023/04/24 02:58:08;;;;;;;6.10;1.85;;;8.50;99.90;;;;;;5020973;28;20060;-86
2023/04/24 03:00:34;;;;;;;6.70;2.17;;;8.40;99.90;;;;;;5050965;28;20485;-86
2023/04/24 03:03:00;;;;;;;6.70;2.00;;;8.30;99.90;;;;;;5031888;28;20006;-86
2023/04/24 03:05:27;;;;;;;5.20;2.20;;;8.20;99.90;;;;;;5031517;28;20014;-86
2023/04/24 03:07:52;;;;;;;4.97;2.20;;;8.30;99.90;;;;;;5033558;28;20045;-86
2023/04/24 03:10:22;;;;;;;4.43;2.10;;;8.20;99.90;;;;;;5032504;28;20020;-86
2023/04/24 03:12:48;;;;;;;4.15;2.10;;;8.30;99.90;;;;;;5039799;28;20033;-86
2023/04/24 03:15:14;;;;;;;4.78;2.50;;;8.30;99.90;;;;;;5042090;28;20021;-86
2023/04/24 03:17:40;;;;;;;3.88;2.45;;;8.30;99.90;;;;;;5050772;28;20469;-86
2023/04/24 03:20:08;;;;;;;5.82;2.50;;;8.40;99.90;;;;;;5032782;28;20028;-86
2023/04/24 03:22:34;;;;;;;4.60;2.10;;;8.40;99.90;;;;;;5021684;28;20021;-86
2023/04/24 03:25:02;;;;;;;8.05;2.22;;;8.40;99.90;;;;;;5013809;28;20026;-86
2023/04/24 03:27:28;;;;;;;4.38;2.42;;;8.40;99.90;;;;;;5030826;28;20492;-86
2023/04/24 03:30:02;;;;;;;6.75;2.45;;;8.40;99.90;;;;;;5032095;28;20113;-87
2023/04/24 03:32:53;;;;;;;7.88;3.65;;;8.40;99.90;;;;;;5031101;28;20120;-86
2023/04/24 03:35:23;;;;;;;4.65;2.03;;;8.40;99.90;;;;;;5013878;28;20354;-86
2023/04/24 03:37:50;;;;;;;10.43;2.78;;;8.40;99.90;;;;;;5022323;28;20033;-86
2023/04/24 03:40:52;;;;;;;5.78;2.33;;;8.40;99.90;;;;;;5029457;28;20112;-85
2023/04/24 03:43:34;;;;;;;8.55;3.45;;;8.40;99.90;;;;;;5035264;28;20026;-85
2023/04/24 03:46:00;;;;;;;9.77;3.78;;;8.40;99.90;;;;;;5026762;28;20026;-85
2023/04/24 03:48:27;;;;;;;10.63;5.05;;;8.20;99.90;;;;;;5023982;28;20029;-85
2023/04/24 03:50:53;;;;;;;6.13;3.83;;;8.20;99.90;;;;;;5029421;28;20026;-85
2023/04/24 03:53:19;;;;;;;7.80;4.13;;;7.90;99.90;;;;;;5025145;28;20073;-85
2023/04/24 03:55:46;;;;;;;7.43;5.13;;;7.60;99.90;;;;;;5028695;28;20120;-86
2023/04/24 03:58:13;;;;;;;7.50;3.90;;;7.50;99.90;;;;;;5049911;28;20036;-85
2023/04/24 04:00:40;;;;;;;6.72;4.38;;;7.40;99.90;;;;;;5030597;28;20030;-86
2023/04/24 04:03:56;;;;;;;6.45;3.92;;;7.20;99.90;;;;;;5027556;28;20119;-85
2023/04/24 04:06:24;;;;;;;6.57;3.47;;;7.00;99.90;;;;;;5025893;28;20027;-86
2023/04/24 04:08:52;;;;;;;8.73;3.83;;;6.90;99.90;;;;;;5015495;28;20022;-85
2023/04/24 04:11:18;;;;;;;7.03;4.00;;;6.90;99.90;;;;;;5016791;28;20052;-86
2023/04/24 04:13:45;;;;;;;7.47;3.90;;;6.80;99.90;;;;;;5031970;28;20539;-85
2023/04/24 04:16:11;;;;;;;5.55;3.72;;;6.70;99.90;;;;;;5035397;28;20029;-88
2023/04/24 04:18:37;;;;;;;7.80;3.40;;;6.70;99.90;;;;;;5028779;28;20028;-89
2023/04/24 04:21:05;;;;;;;5.97;3.95;;;6.60;99.90;;;;;;5026356;28;20079;-89
2023/04/24 04:23:31;;;;;;;5.93;3.92;;;6.50;99.90;;;;;;5032862;28;20104;-89
2023/04/24 04:26:07;;;;;;;7.88;4.22;;;6.50;99.90;;;;;;5028559;28;20025;-89
2023/04/24 04:28:49;;;;;;;6.25;3.90;;;6.40;99.90;;;;;;5034385;28;20087;-89
2023/04/24 04:31:15;;;;;;;6.80;4.22;;;6.30;99.90;;;;;;5018733;28;20034;-89
2023/04/24 04:33:41;;;;;;;6.80;4.05;;;6.30;99.90;;;;;;5026770;28;20057;-89
2023/04/24 04:36:08;;;;;;;6.45;4.25;;;6.30;99.90;;;;;;5016621;28;20419;-88
2023/04/24 04:38:40;;;;;;;7.05;4.78;;;6.30;99.90;;;;;;5035884;28;20032;-89
2023/04/24 04:41:14;;;;;;;8.18;4.72;;;6.40;99.90;;;;;;5019029;28;20485;-89
2023/04/24 04:43:40;;;;;;;6.47;4.60;;;6.40;99.90;;;;;;5024713;28;20022;-89
2023/04/24 04:46:08;;;;;;;8.73;4.85;;;6.40;99.90;;;;;;5017395;28;20084;-89
2023/04/24 04:48:49;;;;;;;9.85;4.70;;;6.40;99.90;;;;;;5030031;28;20037;-90
2023/04/24 04:51:14;;;;;;;8.45;5.70;;;6.30;99.90;;;;;;5034636;28;20386;-89
2023/04/24 04:53:41;;;;;;;11.52;5.97;;;6.30;99.90;;;;;;5029715;28;20029;-90
2023/04/24 04:56:07;;;;;;;5.45;4.38;;;6.30;99.90;;;;;;5036233;28;20097;-89
2023/04/24 04:58:37;;;;;;;8.15;5.53;;;6.20;99.90;;;;;;5035293;28;20058;-89
2023/04/24 05:01:06;;;;;;;7.10;5.43;;;6.20;99.90;;;;;;5033935;28;20380;-89
2023/04/24 05:03:38;;;;;;;10.13;6.10;;;6.20;99.90;;;;;;5033143;28;20022;-89
2023/04/24 05:06:08;;;;;;;9.70;6.22;;;6.20;99.90;;;;;;5023438;28;20025;-90
2023/04/24 05:08:37;;;;;;;15.05;7.95;;;6.20;99.90;;;;;;5037704;28;20044;-90
2023/04/24 05:11:04;;;;;;;10.85;7.10;;;6.20;99.90;;;;;;5041352;28;20097;-89
2023/04/24 05:13:31;;;;;;;11.35;6.82;;;6.20;99.90;;;;;;5038124;28;20540;-89
2023/04/24 05:15:58;;;;;;;10.30;6.65;;;6.20;99.90;;;;;;5023589;28;20124;-89
2023/04/24 05:18:24;;;;;;;11.80;7.20;;;6.30;99.90;;;;;;5029694;28;20075;-89
2023/04/24 05:20:52;;;;;;;10.43;6.85;;;6.30;99.90;;;;;;5013954;28;20025;-88
2023/04/24 05:23:19;;;;;;;9.70;6.65;;;6.30;99.90;;;;;;5018466;28;20370;-89
2023/04/24 05:25:49;;;;;;;12.25;6.57;;;6.30;99.90;;;;;;5038385;28;20022;-89
2023/04/24 05:28:15;;;;;;;11.55;6.53;;;6.30;99.90;;;;;;5021671;28;20036;-89
2023/04/24 05:30:43;;;;;;;10.30;6.20;;;6.20;99.90;;;;;;5036534;28;20029;-89
2023/04/24 05:33:09;;;;;;;10.43;6.72;;;6.20;99.90;;;;;;5024436;28;20120;-89
2023/04/24 05:35:35;;;;;;;11.45;7.45;;;6.30;99.90;;;;;;5031378;28;20064;-89
2023/04/24 05:38:01;;;;;;;10.63;7.57;;;6.30;99.90;;;;;;5038753;28;20112;-89
2023/04/24 05:40:27;;;;;;;10.60;6.93;;;6.40;99.90;;;;;;5035972;28;20453;-90
2023/04/24 05:42:53;;;;;;;13.05;7.93;;;6.30;99.90;;;;;;5023763;28;20108;-89
2023/04/24 05:45:20;;;;;;;11.45;7.15;;;6.40;99.90;;;;;;5026695;28;21200;-89
2023/04/24 05:47:46;;;;;;;15.80;7.25;;;6.40;99.90;;;;;;5025732;28;20032;-90
2023/04/24 05:50:12;;;;;;;14.73;7.38;;;6.50;99.90;;;;;;5024464;28;20030;-90
2023/04/24 05:52:38;;;;;;;13.57;7.20;;;6.60;99.90;;;;;;5033142;28;20159;-90
2023/04/24 05:55:12;;;;;;;12.32;7.72;;;6.70;99.90;;;;;;5033919;28;20473;-90
2023/04/24 05:57:39;;;;;;;10.48;7.75;;;6.70;99.90;;;;;;5037159;28;20025;-90
2023/04/24 06:00:07;;;;;;;17.35;8.52;;;6.80;99.90;;;;;;5040338;28;20059;-90
2023/04/24 06:02:49;;;;;;;11.82;7.20;;;7.00;99.90;;;;;;5034841;28;20026;-90
2023/04/24 06:05:16;;;;;;;14.98;7.38;;;7.30;99.90;;;;;;5036980;28;20026;-90
2023/04/24 06:07:42;;;;;;;10.95;7.32;;;7.30;99.90;;;;;;5034891;28;20073;-90
2023/04/24 06:10:21;;;;;;;10.73;6.80;;;7.30;99.90;;;;;;5033514;28;20097;-90
2023/04/24 06:12:49;;;;;;;11.40;8.38;;;7.20;99.90;;;;;;5023915;28;20041;-90
2023/04/24 06:15:17;;;;;;;17.92;7.45;;;7.20;99.90;;;;;;5020423;28;20033;-90
2023/04/24 06:17:53;;;;;;;13.85;8.02;;;7.30;99.90;;;;;;5050594;28;20056;-90
2023/04/24 06:20:20;;;;;;;15.23;8.18;;;7.30;99.90;;;;;;5041162;28;20097;-90
2023/04/24 06:22:46;;;;;;;16.48;10.10;;;7.40;99.90;;;;;;5032378;28;20026;-90
2023/04/24 06:25:12;;;;;;;18.45;9.07;;;7.50;99.90;;;;;;5030937;28;20025;-90
2023/04/24 06:27:38;;;;;;;12.60;8.95;;;7.60;99.90;;;;;;5021028;28;20469;-90
2023/04/24 06:30:04;;;;;;;12.45;8.07;;;7.80;99.90;;;;;;5039841;28;20036;-90
2023/04/24 06:32:30;;;;;;;16.13;8.35;;;8.10;99.90;;;;;;5020830;28;20097;-91
2023/04/24 06:34:58;;;;;;;9.68;6.78;;;8.60;99.90;;;;;;5020158;28;20033;-89
2023/04/24 06:37:24;;;;;;;11.30;7.03;;;8.80;99.90;;;;;;5035642;28;20376;-90
2023/04/24 06:39:50;;;;;;;11.50;7.45;;;8.90;99.90;;;;;;5038069;28;20041;-91
2023/04/24 06:42:16;;;;;;;10.20;6.22;;;9.00;99.90;;;;;;5036537;28;20037;-91
2023/04/24 06:44:44;;;;;;;11.05;6.95;;;8.80;99.90;;;;;;5016577;28;20021;-91
2023/04/24 06:47:10;;;;;;;11.55;7.03;;;9.00;99.90;;;;;;5032639;28;20041;-90
2023/04/24 06:49:37;;;;;;;8.85;6.10;;;8.70;99.90;;;;;;5024688;28;20026;-90
2023/04/24 06:52:03;;;;;;;10.77;7.43;;;8.30;99.90;;;;;;5014831;28;20025;-90
2023/04/24 06:54:30;;;;;;;11.80;7.70;;;8.20;99.90;;;;;;5013703;28;20057;-90
2023/04/24 06:56:57;;;;;;;11.75;7.68;;;8.20;99.90;;;;;;5034497;28;20037;-89
2023/04/24 06:59:24;;;;;;;11.32;7.28;;;8.10;99.90;;;;;;5016050;28;20047;-88
2023/04/24 07:01:51;;;;;;;9.68;7.05;;;8.00;99.90;;;;;;5018684;28;20028;-89
2023/04/24 07:04:17;;;;;;;10.90;8.18;;;7.70;99.90;;;;;;5026287;28;20028;-90
2023/04/24 07:06:45;;;;;;;13.38;7.18;;;7.70;99.90;;;;;;5014745;28;20488;-89
2023/04/24 07:09:13;;;;;;;13.85;7.35;;;7.70;99.90;;;;;;5033369;28;20541;-90
2023/04/24 07:11:42;;;;;;;13.18;8.55;;;7.80;99.90;;;;;;5003675;28;20026;-90
2023/04/24 07:14:08;;;;;;;9.85;7.45;;;7.90;99.90;;;;;;5022146;28;20037;-91
2023/04/24 07:16:35;;;;;;;13.43;8.10;;;8.00;99.90;;;;;;5016003;28;20029;-90
2023/04/24 07:19:01;;;;;;;9.57;7.38;;;8.10;99.90;;;;;;5032622;28;20728;-89
2023/04/24 07:21:27;;;;;;;9.95;6.88;;;8.20;99.90;;;;;;5034510;28;20026;-91
2023/04/24 07:23:53;;;;;;;10.98;7.07;;;8.20;99.90;;;;;;5015753;28;20417;-90
2023/04/24 07:26:20;;;;;;;11.55;7.07;;;8.00;99.90;;;;;;5022528;28;20022;-91
2023/04/24 07:28:46;;;;;;;12.57;7.47;;;8.00;99.90;;;;;;5030078;28;20060;-90
2023/04/24 07:31:12;;;;;;;11.13;6.65;;;7.90;99.90;;;;;;5024349;28;20033;-90
2023/04/24 07:33:38;;;;;;;14.23;7.93;;;7.70;99.90;;;;;;5019699;28;20029;-90
2023/04/24 07:36:04;;;;;;;13.15;8.38;;;7.70;99.90;;;;;;5016756;28;20065;-91
2023/04/24 07:38:30;;;;;;;14.23;7.63;;;7.60;99.90;;;;;;5028614;28;20025;-90
2023/04/24 07:40:57;;;;;;;15.43;8.50;;;7.40;99.90;;;;;;5017862;28;20026;-89
2023/04/24 07:43:23;;;;;;;12.30;8.52;;;7.20;99.90;;;;;;5027562;28;20393;-90
2023/04/24 07:45:50;;;;;;;10.50;7.03;;;7.00;99.90;;;;;;5028303;28;20025;-88
2023/04/24 07:48:17;;;;;;;6.32;4.03;;;6.90;99.90;;;;;;5031226;28;20425;-90
2023/04/24 07:50:46;;;;;;;6.03;3.88;;;6.70;99.90;;;;;;5020070;28;20030;-89
2023/04/24 07:53:12;;;;;;;10.13;3.63;;;6.50;99.90;;;;;;5043331;28;20034;-88
2023/04/24 07:55:37;;;;;;;6.45;3.17;;;6.40;99.90;;;;;;5038013;28;20095;-88
2023/04/24 07:58:06;;;;;;;7.75;4.07;;;6.30;99.90;;;;;;5023379;28;20430;-88
2023/04/24 08:00:32;;;;;;;6.22;3.72;;;6.50;99.90;;;;;;5029115;28;20029;-88
2023/04/24 08:02:57;;;;;;;8.93;4.38;;;6.60;99.90;;;;;;5012827;28;20093;-89
2023/04/24 08:05:25;;;;;;;11.27;6.57;;;6.70;99.90;;;;;;5031552;28;20465;-89
2023/04/24 08:07:51;;;;;;;5.35;3.65;;;6.90;99.90;;;;;;5020987;28;20030;-90
2023/04/24 08:10:17;;;;;;;6.10;3.45;;;7.00;99.90;;;;;;5021973;28;20040;-89
2023/04/24 08:12:42;;;;;;;6.72;3.85;;;6.90;99.90;;;;;;5019342;28;20033;-90
2023/04/24 08:15:08;;;;;;;6.70;4.22;;;7.00;99.90;;;;;;5047876;28;20112;-88
2023/04/24 08:17:35;;;;;;;4.82;3.47;;;7.10;99.90;;;;;;5024241;28;20026;-89
2023/04/24 08:20:01;;;;;;;5.55;3.65;;;7.20;99.90;;;;;;5018694;28;20037;-85
2023/04/24 08:22:28;;;;;;;5.50;3.78;;;7.10;99.90;;;;;;5033275;28;20033;-89
2023/04/24 08:24:55;;;;;;;6.60;3.83;;;7.10;99.90;;;;;;5023001;28;20033;-90
2023/04/24 08:27:21;;;;;;;7.40;4.03;;;7.30;99.90;;;;;;5033967;28;20065;-89
2023/04/24 08:29:47;;;;;;;5.05;3.78;;;7.40;99.90;;;;;;5024882;28;20033;-89
2023/04/24 08:32:12;;;;;;;7.25;4.00;;;7.50;99.90;;;;;;5031484;28;20408;-90
2023/04/24 08:34:38;;;;;;;6.97;4.40;;;7.50;99.90;;;;;;5032564;28;20087;-90
2023/04/24 08:37:04;;;;;;;5.03;3.65;;;7.70;99.90;;;;;;5028339;28;20037;-90
2023/04/24 08:39:30;;;;;;;5.50;3.90;;;7.90;99.90;;;;;;5033298;28;20041;-89
2023/04/24 08:41:55;;;;;;;8.27;4.03;;;8.10;99.90;;;;;;5028504;28;20026;-90
2023/04/24 08:44:21;;;;;;;6.45;3.97;;;8.10;99.90;;;;;;5033282;28;20053;-89
2023/04/24 08:46:51;;;;;;;5.15;3.83;;;8.50;99.90;;;;;;5031098;28;20029;-90
2023/04/24 08:49:17;;;;;;;5.57;3.63;;;8.80;99.90;;;;;;5033473;28;20377;-89
2023/04/24 08:51:44;;;;;;;6.18;3.78;;;8.90;99.90;;;;;;5035988;28;20026;-90
2023/04/24 08:54:12;;;;;;;5.25;3.67;;;9.40;99.90;;;;;;5037332;28;20362;-91
2023/04/24 08:56:40;;;;;;;4.43;3.13;;;10.40;99.90;;;;;;5035683;28;20036;-91
2023/04/24 08:59:08;;;;;;;5.40;4.03;;;11.00;99.90;;;;;;5036626;28;20029;-89
2023/04/24 09:01:37;;;;;;;7.75;3.80;;;10.80;99.90;;;;;;5021958;28;20060;-90
2023/04/24 09:04:03;;;;;;;8.55;4.18;;;10.80;99.90;;;;;;5024172;28;20030;-90
2023/04/24 09:06:31;;;;;;;12.10;4.53;;;10.60;99.90;;;;;;5020201;28;20397;-91
2023/04/24 09:09:01;;;;;;;7.10;4.18;;;10.00;99.90;;;;;;5029664;28;20429;-90
2023/04/24 09:11:27;;;;;;;6.55;4.07;;;9.30;99.90;;;;;;5019644;28;20498;-91
2023/04/24 09:13:56;;;;;;;5.13;4.03;;;8.70;99.90;;;;;;5030860;28;20009;-90
2023/04/24 09:16:24;;;;;;;8.38;3.90;;;8.40;99.90;;;;;;5036064;28;20044;-91
2023/04/24 09:18:50;;;;;;;6.05;4.05;;;8.20;99.90;;;;;;5037027;28;20392;-90
2023/04/24 09:21:16;;;;;;;7.57;4.30;;;8.10;99.90;;;;;;5018820;28;20049;-89
2023/04/24 09:23:41;;;;;;;5.90;4.03;;;8.20;99.90;;;;;;5022802;28;20029;-91
2023/04/24 09:26:09;;;;;;;4.35;3.60;;;8.20;99.90;;;;;;5024329;28;20034;-91
2023/04/24 09:28:37;;;;;;;14.25;4.65;;;8.20;99.90;;;;;;5034056;28;20026;-90
2023/04/24 09:31:23;;;;;;;8.07;3.70;;;8.10;99.90;;;;;;5030674;28;20083;-89
2023/04/24 09:34:05;;;;;;;5.57;3.67;;;8.30;99.90;;;;;;5033988;28;20037;-91
2023/04/24 09:36:37;;;;;;;8.50;4.13;;;8.70;99.90;;;;;;5028724;28;20029;-90
2023/04/24 09:39:05;;;;;;;13.50;4.13;;;9.20;99.90;;;;;;5041625;28;20037;-91
2023/04/24 09:41:32;;;;;;;7.43;4.07;;;9.40;99.90;;;;;;5050733;28;20029;-91
2023/04/24 09:44:12;;;;;;;7.10;3.88;;;9.20;99.90;;;;;;5036396;28;20113;-90
2023/04/24 09:46:37;;;;;;;9.73;3.97;;;9.50;99.90;;;;;;5041085;28;20122;-91
2023/04/24 09:49:17;;;;;;;7.25;4.38;;;9.60;99.90;;;;;;5014365;28;20053;-91
2023/04/24 09:51:43;;;;;;;10.68;6.85;;;9.40;99.90;;;;;;5019073;28;20031;-91
2023/04/24 09:54:17;;;;;;;6.65;4.40;;;9.50;99.90;;;;;;5054687;28;20104;-90
2023/04/24 09:56:47;;;;;;;13.68;3.90;;;9.20;99.90;;;;;;5040877;28;20052;-91
2023/04/24 09:59:14;;;;;;;8.70;4.55;;;9.30;99.90;;;;;;5026530;28;20025;-92
2023/04/24 10:01:49;;;;;;;7.75;4.20;;;9.40;99.90;;;;;;5047970;28;20025;-92
2023/04/24 10:04:22;;;;;;;14.02;4.55;;;9.40;99.90;;;;;;5032150;28;20044;-91
2023/04/24 10:06:49;;;;;;;8.77;4.25;;;8.90;99.90;;;;;;5025244;28;20029;-90
2023/04/24 10:09:16;;;;;;;15.20;5.53;;;8.60;99.90;;;;;;5043578;28;20032;-91
2023/04/24 10:11:45;;;;;;;8.27;3.75;;;8.50;99.90;;;;;;5039711;28;20465;-91
2023/04/24 10:14:20;;;;;;;7.10;3.15;;;8.40;99.90;;;;;;5022989;28;20034;-92
2023/04/24 10:16:47;;;;;;;7.00;4.18;;;8.70;99.90;;;;;;5043102;28;20025;-92
2023/04/24 10:19:14;;;;;;;10.75;5.68;;;9.20;99.90;;;;;;5054141;28;20028;-91
2023/04/24 10:21:45;;;;;;;5.07;3.40;;;9.30;99.90;;;;;;5032264;28;20553;-91
2023/04/24 10:24:13;;;;;;;14.00;4.10;;;9.70;99.90;;;;;;5059853;28;20029;-92
2023/04/24 10:26:40;;;;;;;6.72;3.80;;;10.00;99.90;;;;;;5038668;28;20056;-91
2023/04/24 10:29:09;;;;;;;5.65;3.65;;;9.90;99.90;;;;;;5030376;28;20030;-91
2023/04/24 10:31:37;;;;;;;5.30;3.65;;;9.90;99.90;;;;;;5025411;28;20033;-92
2023/04/24 10:34:07;;;;;;;12.65;3.95;;;9.90;99.90;;;;;;5039908;28;20041;-92
2023/04/24 10:36:35;;;;;;;11.63;4.43;;;9.80;99.90;;;;;;5041151;28;20044;-91
2023/04/24 10:39:03;;;;;;;8.57;3.70;;;9.80;99.90;;;;;;5033116;28;20025;-91
2023/04/24 10:41:30;;;;;;;5.47;3.35;;;9.90;99.90;;;;;;5046950;28;20026;-91
2023/04/24 10:44:09;;;;;;;12.20;4.05;;;9.60;99.90;;;;;;5018484;28;20144;-92
2023/04/24 10:46:36;;;;;;;6.25;4.35;;;9.70;99.90;;;;;;5065129;28;20021;-92
2023/04/24 10:49:08;;;;;;;6.53;3.92;;;9.80;99.90;;;;;;5021415;28;20030;-92
2023/04/24 10:51:49;;;;;;;7.50;3.85;;;9.60;99.90;;;;;;5041408;28;20035;-92
2023/04/24 10:54:26;;;;;;;5.80;3.93;;;9.30;99.90;;;;;;5033905;28;20028;-91
2023/04/24 10:56:52;;;;;;;5.28;4.72;;;9.10;99.90;;;;;;5034911;28;20030;-92
2023/04/24 10:59:34;;;;;;;5.07;3.80;;;8.90;99.90;;;;;;5033049;28;20025;-92
2023/04/24 11:02:00;;;;;;;8.02;5.15;;;9.00;99.90;;;;;;5027960;28;20045;-92
2023/04/24 11:04:31;;;;;;;6.88;4.70;;;8.90;99.90;;;;;;5041229;28;20030;-91
2023/04/24 11:06:57;;;;;;;7.20;5.63;;;8.40;99.90;;;;;;5030234;28;20022;-90
2023/04/24 11:09:27;;;;;;;16.15;7.88;;;7.90;99.90;;;;;;5035019;28;20064;-90
2023/04/24 11:12:13;;;;;;;10.23;7.25;;;7.50;99.90;;;;;;5034959;28;20381;-90
2023/04/24 11:14:57;;;;;;;11.82;7.68;;;7.20;99.90;;;;;;5019900;28;20041;-90
2023/04/24 11:17:39;;;;;;;14.73;6.32;;;7.20;99.90;;;;;;5026876;28;20061;-90
2023/04/24 11:20:10;;;;;;;12.30;7.30;;;7.30;99.90;;;;;;5041048;28;20428;-91
2023/04/24 11:22:39;;;;;;;8.55;5.45;;;7.80;99.90;;;;;;5040726;28;20054;-92
2023/04/24 11:25:06;;;;;;;7.13;5.57;;;8.30;99.90;;;;;;5067298;28;20025;-90
2023/04/24 11:27:43;;;;;;;6.72;4.93;;;8.90;99.90;;;;;;5042398;28;20041;-91
2023/04/24 11:30:10;;;;;;;6.82;4.68;;;9.70;99.90;;;;;;5025815;28;20428;-91
2023/04/24 11:32:41;;;;;;;5.00;4.15;;;10.00;99.90;;;;;;5041094;28;20098;-91
2023/04/24 11:35:15;;;;;;;8.43;4.47;;;9.70;99.90;;;;;;5031188;28;20038;-91
2023/04/24 11:37:43;;;;;;;5.80;3.92;;;9.40;99.90;;;;;;5022567;28;20099;-91
2023/04/24 11:40:11;;;;;;;6.20;4.60;;;9.20;99.90;;;;;;5031157;28;20033;-90
2023/04/24 11:42:39;;;;;;;12.48;5.80;;;9.00;99.90;;;;;;5039968;28;20076;-91
2023/04/24 11:45:16;;;;;;;9.57;5.05;;;8.90;99.90;;;;;;5022645;28;20053;-91
2023/04/24 11:47:43;;;;;;;9.52;6.32;;;9.10;99.90;;;;;;5040548;28;20503;-91
2023/04/24 11:50:13;;;;;;;16.73;9.18;;;9.00;99.90;;;;;;5051013;28;20036;-91
2023/04/24 11:52:41;;;;;;;10.23;5.22;;;8.90;99.90;;;;;;5020746;28;20037;-91
2023/04/24 11:55:28;;;;;;;7.65;5.88;;;8.70;99.90;;;;;;5032059;28;20034;-90
2023/04/24 11:57:57;;;;;;;11.80;7.93;;;9.00;99.90;;;;;;5023343;28;20048;-91
2023/04/24 12:00:25;;;;;;;7.85;5.18;;;9.10;99.90;;;;;;5019245;28;20089;-91
2023/04/24 12:02:51;;;;;;;7.95;5.32;;;9.00;99.90;;;;;;5023047;28;20033;-91
2023/04/24 12:05:27;;;;;;;9.27;4.80;;;9.10;99.90;;;;;;5018768;28;20069;-90
2023/04/24 12:07:53;;;;;;;7.68;5.35;;;8.80;99.90;;;;;;5027573;28;20037;-91
2023/04/24 12:10:24;;;;;;;11.38;5.75;;;8.70;99.90;;;;;;5042490;28;20037;-91
2023/04/24 12:12:51;;;;;;;7.70;4.95;;;8.60;99.90;;;;;;5037370;28;20029;-91
2023/04/24 12:15:18;;;;;;;8.15;5.45;;;8.60;99.90;;;;;;5047246;28;20091;-91
2023/04/24 12:17:45;;;;;;;9.80;5.10;;;8.70;99.90;;;;;;5053514;28;20104;-91
2023/04/24 12:20:11;;;;;;;9.32;6.10;;;8.90;99.90;;;;;;5020184;28;20029;-92
2023/04/24 12:22:44;;;;;;;8.10;5.22;;;8.90;99.90;;;;;;5021862;28;20089;-91
2023/04/24 12:25:10;;;;;;;7.50;5.40;;;9.00;99.90;;;;;;5022106;28;20033;-91
2023/04/24 12:27:36;;;;;;;8.30;5.80;;;9.00;99.90;;;;;;5025051;28;20424;-91
2023/04/24 12:30:05;;;;;;;8.68;5.88;;;9.20;99.90;;;;;;5046316;28;20052;-91
2023/04/24 12:32:31;;;;;;;15.35;7.28;;;9.30;99.90;;;;;;5047146;28;20120;-92
2023/04/24 12:34:58;;;;;;;11.82;6.78;;;9.10;99.90;;;;;;5028344;28;20033;-91
2023/04/24 12:37:25;;;;;;;13.35;8.02;;;8.80;99.90;;;;;;5032943;28;20029;-92
2023/04/24 12:40:11;;;;;;;13.50;6.25;;;8.70;99.90;;;;;;5022106;28;20098;-91
2023/04/24 12:42:44;;;;;;;11.80;6.88;;;8.60;99.90;;;;;;5026397;28;20018;-92
2023/04/24 12:45:11;;;;;;;10.15;5.65;;;8.40;99.90;;;;;;5031974;28;20091;-91
2023/04/24 12:47:37;;;;;;;12.00;7.32;;;8.40;99.90;;;;;;5020606;28;20033;-92
2023/04/24 12:50:04;;;;;;;11.15;7.10;;;8.30;99.90;;;;;;5041344;28;20064;-91
2023/04/24 12:52:31;;;;;;;9.52;6.80;;;8.20;99.90;;;;;;5059541;28;20044;-91
2023/04/24 12:54:59;;;;;;;12.52;6.32;;;8.20;99.90;;;;;;5018226;28;20120;-91
2023/04/24 12:57:26;;;;;;;11.75;7.13;;;8.20;99.90;;;;;;5025152;28;20041;-91